Time;durP1;ratioP1;P1;durP2;ratioP2;P2;SDS_P1;SDS_P2;PMS_P1;PMS_P2;Temp;Humidity;BMP_temperature;BMP_pressure;BME280_temperature;BME280_humidity;BME280_pressure;Samples;Min_cycle;Max_cycle;Signal;HPM_P1;HPM_P2
2021/12/14 00:00:20;;;;;;;23.88;15.65;;;7.60;99.90;;;;;;6190789;23;20012;-82
2021/12/14 00:02:47;;;;;;;26.35;15.35;;;7.60;99.90;;;;;;6192187;23;20075;-82
2021/12/14 00:05:16;;;;;;;26.80;15.90;;;7.60;99.90;;;;;;6165012;23;20017;-82
2021/12/14 00:07:42;;;;;;;25.15;15.82;;;7.60;99.90;;;;;;6215917;23;20020;-82
2021/12/14 00:10:42;;;;;;;23.77;15.10;;;7.60;99.90;;;;;;6191427;23;20059;-82
2021/12/14 00:13:10;;;;;;;21.55;14.93;;;7.60;99.90;;;;;;6215470;23;20020;-82
2021/12/14 00:15:35;;;;;;;24.38;15.75;;;7.60;99.90;;;;;;6190115;23;20020;-82
2021/12/14 00:18:06;;;;;;;26.13;16.43;;;7.60;99.90;;;;;;6164604;23;20346;-82
2021/12/14 00:20:39;;;;;;;22.15;14.93;;;7.60;99.90;;;;;;6190476;23;20012;-82
2021/12/14 00:25:53;;;;;;;27.67;16.13;;;7.50;99.90;;;;;;6216074;23;20454;-82
2021/12/14 00:28:25;;;;;;;24.48;17.05;;;7.60;99.90;;;;;;6216317;23;20064;-82
2021/12/14 00:30:52;;;;;;;26.02;16.83;;;7.60;99.90;;;;;;6190539;23;20017;-82
2021/12/14 00:33:22;;;;;;;27.05;18.27;;;7.50;99.90;;;;;;6190919;23;20020;-82
2021/12/14 00:35:48;;;;;;;25.58;17.48;;;7.50;99.90;;;;;;6189363;23;20051;-82
2021/12/14 00:38:18;;;;;;;28.00;18.38;;;7.50;99.90;;;;;;6189882;23;20488;-82
2021/12/14 00:40:48;;;;;;;30.10;18.20;;;7.50;99.90;;;;;;6191374;23;20017;-82
2021/12/14 00:43:14;;;;;;;29.70;18.20;;;7.50;99.90;;;;;;6216588;23;20437;-82
2021/12/14 00:45:42;;;;;;;30.88;18.20;;;7.50;99.90;;;;;;6171403;23;20461;-82
2021/12/14 00:48:09;;;;;;;29.23;18.27;;;7.50;99.90;;;;;;6220389;23;20064;-82
2021/12/14 00:50:37;;;;;;;28.48;17.90;;;7.50;99.90;;;;;;6221377;23;20031;-82
2021/12/14 00:53:04;;;;;;;27.42;18.08;;;7.50;99.90;;;;;;6221404;23;20016;-82
2021/12/14 00:55:36;;;;;;;29.60;18.05;;;7.50;99.90;;;;;;6171644;23;20515;-82
2021/12/14 00:58:03;;;;;;;28.02;17.50;;;7.50;99.90;;;;;;6221599;23;20047;-82
2021/12/14 01:00:33;;;;;;;30.83;18.20;;;7.50;99.90;;;;;;6172351;23;20119;-82
2021/12/14 01:03:00;;;;;;;28.10;18.15;;;7.50;99.90;;;;;;6197638;23;20019;-82
2021/12/14 01:05:38;;;;;;;28.67;18.35;;;7.50;99.90;;;;;;6222019;23;20505;-82
2021/12/14 01:08:08;;;;;;;29.48;18.67;;;7.50;99.90;;;;;;6221788;23;20022;-82
2021/12/14 01:11:03;;;;;;;30.42;17.95;;;7.50;99.90;;;;;;6222015;23;20103;-82
2021/12/14 01:13:32;;;;;;;31.63;19.23;;;7.50;99.90;;;;;;6195714;23;20016;-82
2021/12/14 01:16:31;;;;;;;30.08;18.48;;;7.50;99.90;;;;;;6222407;23;20508;-82
2021/12/14 01:25:06;;;;;;;28.38;18.25;;;7.50;99.90;;;;;;6220506;23;20016;-83
2021/12/14 01:27:43;;;;;;;24.92;17.25;;;7.50;99.90;;;;;;6223260;23;20429;-83
2021/12/14 01:30:31;;;;;;;30.45;19.45;;;7.50;99.90;;;;;;6198617;23;20071;-83
2021/12/14 01:33:02;;;;;;;29.55;18.98;;;7.50;99.90;;;;;;6198720;23;20044;-83
2021/12/14 01:35:32;;;;;;;26.42;18.50;;;7.50;99.90;;;;;;6222135;23;20012;-83
2021/12/14 01:38:16;;;;;;;27.27;18.52;;;7.50;99.90;;;;;;6224344;23;20449;-83
2021/12/14 01:40:53;;;;;;;30.85;19.40;;;7.50;99.90;;;;;;6223100;23;20023;-83
2021/12/14 01:43:29;;;;;;;31.02;19.55;;;7.50;99.90;;;;;;6223378;23;20460;-83
2021/12/14 01:45:58;;;;;;;26.92;17.80;;;7.50;99.90;;;;;;6196964;23;20054;-83
2021/12/14 01:48:24;;;;;;;27.98;17.95;;;7.50;99.90;;;;;;6198057;23;20496;-83
2021/12/14 01:50:57;;;;;;;29.77;18.77;;;7.50;99.90;;;;;;6174046;23;20051;-83
2021/12/14 01:53:24;;;;;;;29.08;18.30;;;7.50;99.90;;;;;;6224089;23;20016;-83
2021/12/14 01:55:56;;;;;;;30.67;19.17;;;7.50;99.90;;;;;;6224609;23;20009;-83
2021/12/14 01:58:24;;;;;;;29.08;18.33;;;7.60;99.90;;;;;;6223795;23;20016;-83
2021/12/14 02:01:04;;;;;;;30.50;19.75;;;7.60;99.90;;;;;;6199653;23;20464;-83
2021/12/14 02:03:41;;;;;;;29.75;18.98;;;7.60;99.90;;;;;;6225135;23;20008;-83
2021/12/14 02:06:11;;;;;;;30.63;19.40;;;7.60;99.90;;;;;;6224464;23;20050;-83
2021/12/14 02:08:37;;;;;;;30.52;19.35;;;7.70;99.90;;;;;;6225988;23;20038;-83
2021/12/14 02:11:06;;;;;;;31.30;19.42;;;7.60;99.90;;;;;;6175688;23;20016;-83
2021/12/14 02:13:47;;;;;;;29.92;19.13;;;7.60;99.90;;;;;;6224691;23;20027;-83
2021/12/14 02:16:17;;;;;;;29.75;20.17;;;7.60;99.90;;;;;;6224931;23;20012;-82
2021/12/14 02:18:47;;;;;;;28.73;19.52;;;7.60;99.90;;;;;;6223036;23;20493;-83
2021/12/14 02:21:14;;;;;;;32.65;20.67;;;7.60;99.90;;;;;;6225074;23;20469;-83
2021/12/14 02:23:46;;;;;;;31.35;20.40;;;7.60;99.90;;;;;;6199632;23;20012;-83
2021/12/14 02:26:18;;;;;;;32.03;20.70;;;7.60;99.90;;;;;;6227030;23;20016;-83
2021/12/14 02:28:44;;;;;;;32.90;21.42;;;7.60;99.90;;;;;;6224388;23;20539;-83
2021/12/14 02:31:14;;;;;;;31.67;20.30;;;7.60;99.90;;;;;;6225578;23;20051;-83
2021/12/14 02:33:41;;;;;;;31.05;21.13;;;7.60;99.90;;;;;;6225423;23;20023;-83
2021/12/14 02:36:11;;;;;;;32.55;20.95;;;7.60;99.90;;;;;;6224592;23;20364;-83
2021/12/14 02:38:47;;;;;;;32.42;21.35;;;7.60;99.90;;;;;;6224003;23;20020;-83
2021/12/14 02:41:13;;;;;;;31.13;20.73;;;7.60;99.90;;;;;;6224126;23;20016;-83
2021/12/14 02:43:44;;;;;;;31.33;21.50;;;7.60;99.90;;;;;;6174883;23;20015;-83
2021/12/14 02:46:21;;;;;;;32.95;21.58;;;7.50;99.90;;;;;;6224945;23;20040;-83
2021/12/14 02:48:50;;;;;;;34.20;22.00;;;7.50;99.90;;;;;;6198815;23;20054;-83
2021/12/14 02:51:23;;;;;;;31.58;21.40;;;7.50;99.90;;;;;;6223980;23;20068;-83
2021/12/14 02:53:52;;;;;;;35.33;22.35;;;7.50;99.90;;;;;;6223449;23;20015;-83
2021/12/14 02:56:23;;;;;;;36.10;22.63;;;7.50;99.90;;;;;;6223036;23;20087;-83
2021/12/14 02:58:54;;;;;;;36.38;22.33;;;7.50;99.90;;;;;;6223130;23;20017;-83
2021/12/14 03:01:20;;;;;;;32.55;21.58;;;7.50;99.90;;;;;;6198428;23;20023;-83
2021/12/14 03:03:46;;;;;;;35.97;21.67;;;7.50;99.90;;;;;;6223269;23;20016;-83
2021/12/14 03:06:19;;;;;;;34.67;23.13;;;7.50;99.90;;;;;;6223474;23;20027;-83
2021/12/14 03:08:56;;;;;;;33.03;21.85;;;7.50;99.90;;;;;;6176012;23;20039;-83
2021/12/14 03:11:22;;;;;;;34.88;23.38;;;7.50;99.90;;;;;;6176277;23;20027;-83
2021/12/14 03:13:54;;;;;;;35.42;22.45;;;7.50;99.90;;;;;;6223129;23;20012;-83
2021/12/14 03:16:28;;;;;;;37.42;23.75;;;7.50;99.90;;;;;;6223811;23;20315;-83
2021/12/14 03:18:55;;;;;;;36.08;23.73;;;7.50;99.90;;;;;;6222750;23;20542;-83
2021/12/14 03:21:25;;;;;;;35.55;22.95;;;7.50;99.90;;;;;;6173161;23;20012;-83
2021/12/14 03:24:07;;;;;;;37.17;24.52;;;7.50;99.90;;;;;;6222449;23;20012;-83
2021/12/14 03:26:38;;;;;;;38.22;24.00;;;7.40;99.90;;;;;;6223768;23;20046;-83
2021/12/14 03:29:09;;;;;;;37.70;23.52;;;7.40;99.90;;;;;;6223311;23;20047;-83
2021/12/14 03:31:44;;;;;;;38.33;23.55;;;7.40;99.90;;;;;;6222386;23;20449;-83
2021/12/14 03:34:19;;;;;;;41.03;23.95;;;7.30;99.90;;;;;;6197221;23;20054;-83
2021/12/14 03:36:56;;;;;;;;;;;7.30;99.90;;;;;;6222507;23;20103;-83
2021/12/14 03:39:26;;;;;;;39.78;24.27;;;7.30;99.90;;;;;;6196531;23;19915;-83
2021/12/14 03:42:22;;;;;;;39.15;23.63;;;7.30;99.90;;;;;;6223261;23;20016;-83
2021/12/14 03:44:53;;;;;;;38.50;24.45;;;7.30;99.90;;;;;;6193754;23;20031;-83
2021/12/14 03:47:27;;;;;;;39.05;24.10;;;7.40;99.90;;;;;;6221978;23;20353;-83
2021/12/14 03:50:01;;;;;;;40.90;24.30;;;7.40;99.90;;;;;;6222704;23;20539;-83
2021/12/14 03:52:33;;;;;;;40.22;24.65;;;7.40;99.90;;;;;;6221778;23;20015;-83
2021/12/14 03:55:03;;;;;;;40.50;24.92;;;7.40;99.90;;;;;;6221601;23;20012;-83
2021/12/14 03:57:29;;;;;;;42.25;25.33;;;7.50;99.90;;;;;;6221562;23;20020;-83
2021/12/14 03:59:55;;;;;;;36.55;24.95;;;7.50;99.90;;;;;;6172138;23;20023;-83
2021/12/14 04:02:21;;;;;;;38.13;24.50;;;7.40;99.90;;;;;;6196809;22;20035;-83
2021/12/14 04:04:53;;;;;;;39.05;24.73;;;7.50;99.90;;;;;;6197133;23;20016;-83
2021/12/14 04:07:21;;;;;;;34.42;23.80;;;7.50;99.90;;;;;;6222244;23;20111;-83
2021/12/14 04:09:46;;;;;;;39.97;24.95;;;7.50;99.90;;;;;;6197906;23;20012;-83
2021/12/14 04:12:18;;;;;;;41.83;25.97;;;7.60;99.90;;;;;;6221320;23;20016;-83
2021/12/14 04:14:49;;;;;;;42.55;27.00;;;7.60;99.90;;;;;;6196374;23;20012;-83
2021/12/14 04:17:15;;;;;;;40.35;24.42;;;7.60;99.90;;;;;;6220990;23;20357;-83
2021/12/14 04:19:41;;;;;;;40.63;24.85;;;7.60;99.90;;;;;;6220576;23;20023;-83
2021/12/14 04:22:12;;;;;;;43.33;25.67;;;7.60;99.90;;;;;;6170848;23;20008;-83
2021/12/14 04:24:40;;;;;;;41.97;24.70;;;7.50;99.90;;;;;;6219405;23;20246;-83
2021/12/14 04:27:13;;;;;;;41.13;24.70;;;7.60;99.90;;;;;;6220031;23;20050;-83
2021/12/14 04:29:39;;;;;;;38.20;24.08;;;7.60;99.90;;;;;;6221627;23;20016;-84
2021/12/14 04:32:09;;;;;;;40.87;25.63;;;7.60;99.90;;;;;;6220951;23;20019;-83
2021/12/14 04:34:35;;;;;;;41.65;25.38;;;7.60;99.90;;;;;;6194799;23;20016;-83
2021/12/14 04:37:02;;;;;;;44.90;26.23;;;7.60;99.90;;;;;;6219681;23;20020;-83
2021/12/14 04:39:36;;;;;;;40.80;25.08;;;7.60;99.90;;;;;;6219914;23;20468;-83
2021/12/14 04:53:41;;;;;;;;;;;7.60;99.90;;;;;;6199693;23;20019;-83
2021/12/14 04:56:10;;;;;;;45.70;26.42;;;7.60;99.90;;;;;;6194611;23;19922;-83
2021/12/14 04:58:52;;;;;;;45.58;27.30;;;7.60;99.90;;;;;;6219558;23;20025;-83
2021/12/14 05:01:18;;;;;;;47.13;28.27;;;7.60;99.90;;;;;;6221370;23;20019;-83
2021/12/14 05:03:49;;;;;;;46.43;27.93;;;7.60;99.90;;;;;;6170006;23;20289;-83
2021/12/14 05:06:22;;;;;;;46.50;26.52;;;7.60;99.90;;;;;;6219734;23;20016;-83
2021/12/14 05:11:21;;;;;;;44.45;29.05;;;7.50;99.90;;;;;;6220197;23;20020;-83
2021/12/14 05:13:52;;;;;;;47.53;29.42;;;7.50;99.90;;;;;;6222334;23;20019;-83
2021/12/14 05:16:26;;;;;;;48.97;27.83;;;7.50;99.90;;;;;;6223604;23;20038;-83
2021/12/14 05:18:54;;;;;;;50.55;29.02;;;7.50;99.90;;;;;;6222066;23;20020;-83
2021/12/14 05:21:25;;;;;;;45.78;28.52;;;7.50;99.90;;;;;;6220532;23;20014;-83
2021/12/14 05:23:50;;;;;;;48.45;28.85;;;7.50;99.90;;;;;;6220665;23;20098;-83
2021/12/14 05:26:16;;;;;;;54.10;30.03;;;7.50;99.90;;;;;;6195896;23;20019;-83
2021/12/14 05:28:43;;;;;;;50.57;30.33;;;7.50;99.90;;;;;;6194863;23;20676;-83
2021/12/14 05:31:09;;;;;;;55.55;32.30;;;7.50;99.90;;;;;;6221061;23;20019;-83
2021/12/14 05:33:36;;;;;;;59.08;33.60;;;7.40;99.90;;;;;;6219742;23;20095;-83
2021/12/14 05:36:08;;;;;;;58.55;33.25;;;7.40;99.90;;;;;;6195715;23;20008;-83
2021/12/14 05:38:57;;;;;;;54.33;31.50;;;7.40;99.90;;;;;;6221870;23;20467;-83
2021/12/14 05:44:19;;;;;;;55.65;33.30;;;7.40;99.90;;;;;;6221528;23;20031;-83
2021/12/14 05:46:50;;;;;;;59.85;33.22;;;7.40;99.90;;;;;;6220773;23;20098;-83
2021/12/14 05:49:22;;;;;;;61.70;35.05;;;7.40;99.90;;;;;;6221854;23;20024;-83
2021/12/14 05:51:50;;;;;;;60.15;34.28;;;7.40;99.90;;;;;;6221816;23;20279;-83
2021/12/14 05:54:21;;;;;;;65.07;35.97;;;7.40;99.90;;;;;;6195287;23;20441;-83
2021/12/14 05:56:48;;;;;;;61.55;35.10;;;7.50;99.90;;;;;;6220897;23;20018;-83
2021/12/14 05:59:20;;;;;;;66.93;36.97;;;7.40;99.90;;;;;;6171326;23;20453;-83
2021/12/14 06:01:47;;;;;;;67.93;37.33;;;7.40;99.90;;;;;;6220305;23;20013;-83
2021/12/14 06:04:13;;;;;;;67.60;36.15;;;7.40;99.90;;;;;;6171928;23;20012;-83
2021/12/14 06:06:45;;;;;;;64.07;36.88;;;7.40;99.90;;;;;;6198829;23;20047;-83
2021/12/14 06:09:10;;;;;;;71.68;39.38;;;7.40;99.90;;;;;;6222912;23;20031;-83
2021/12/14 06:11:37;;;;;;;75.37;40.37;;;7.40;99.90;;;;;;6197567;23;20016;-82
2021/12/14 06:14:10;;;;;;;76.70;40.20;;;7.50;99.90;;;;;;6221542;23;20395;-82
2021/12/14 06:16:37;;;;;;;79.60;40.20;;;7.40;99.90;;;;;;6175911;23;20016;-82
2021/12/14 06:19:30;;;;;;;79.53;39.42;;;7.40;99.90;;;;;;6197917;23;20051;-82
2021/12/14 06:22:01;;;;;;;78.28;38.72;;;7.40;99.90;;;;;;6224704;23;20019;-82
2021/12/14 06:24:30;;;;;;;84.90;40.42;;;7.40;99.90;;;;;;6222539;23;20091;-82
2021/12/14 06:26:59;;;;;;;79.38;39.58;;;7.40;99.90;;;;;;6222871;23;20016;-82
2021/12/14 06:29:47;;;;;;;80.50;39.92;;;7.40;99.90;;;;;;6222441;23;20019;-82
2021/12/14 06:32:25;;;;;;;73.75;39.78;;;7.40;99.90;;;;;;6197317;23;20012;-82
2021/12/14 06:34:55;;;;;;;73.43;39.33;;;7.40;99.90;;;;;;6222264;23;20012;-82
2021/12/14 06:37:41;;;;;;;77.85;40.97;;;7.40;99.90;;;;;;6223950;23;20020;-82
2021/12/14 06:40:16;;;;;;;78.57;40.10;;;7.40;99.90;;;;;;6200131;23;20023;-82
2021/12/14 06:42:54;;;;;;;75.75;38.75;;;7.40;99.90;;;;;;6199693;23;20052;-82
2021/12/14 06:45:43;;;;;;;75.30;38.25;;;7.40;99.90;;;;;;6223686;23;20063;-82
2021/12/14 06:48:22;;;;;;;77.30;39.92;;;7.40;99.90;;;;;;6224268;23;20020;-82
2021/12/14 06:50:54;;;;;;;81.45;40.95;;;7.40;99.90;;;;;;6223851;23;20099;-82
2021/12/14 06:53:21;;;;;;;81.50;40.90;;;7.40;99.90;;;;;;6224362;23;20099;-82
2021/12/14 06:55:50;;;;;;;80.38;40.90;;;7.40;99.90;;;;;;6173203;23;20062;-82
2021/12/14 06:58:20;;;;;;;81.22;40.92;;;7.40;99.90;;;;;;6222041;23;20283;-82
2021/12/14 07:01:13;;;;;;;87.28;40.85;;;7.30;99.90;;;;;;6221399;23;20012;-82
2021/12/14 07:03:43;;;;;;;86.63;41.40;;;7.40;99.90;;;;;;6190886;23;20202;-82
2021/12/14 07:06:31;;;;;;;81.85;42.05;;;7.30;99.90;;;;;;6223722;23;20403;-82
2021/12/14 07:09:05;;;;;;;88.93;42.15;;;7.30;99.90;;;;;;6223654;23;20019;-82
2021/12/14 07:11:30;;;;;;;90.82;43.05;;;7.30;99.90;;;;;;6224469;23;20016;-82
2021/12/14 07:13:57;;;;;;;84.17;41.13;;;7.30;99.90;;;;;;6172542;23;20453;-82
2021/12/14 07:16:31;;;;;;;87.85;42.55;;;7.30;99.90;;;;;;6172007;23;20294;-82
2021/12/14 07:19:01;;;;;;;88.25;42.42;;;7.30;99.90;;;;;;6221507;23;20020;-82
2021/12/14 07:21:38;;;;;;;97.35;43.53;;;7.30;99.90;;;;;;6197897;23;20018;-82
2021/12/14 07:24:35;;;;;;;84.50;40.97;;;7.30;99.90;;;;;;6223213;23;20008;-82
2021/12/14 07:27:16;;;;;;;95.05;42.90;;;7.30;99.90;;;;;;6211016;23;20040;-82
2021/12/14 07:29:42;;;;;;;84.07;41.45;;;7.30;99.90;;;;;;6198596;23;20012;-82
2021/12/14 07:32:08;;;;;;;86.40;41.13;;;7.30;99.90;;;;;;6221823;23;20016;-82
2021/12/14 07:34:34;;;;;;;86.38;40.40;;;7.30;99.90;;;;;;6220980;23;20012;-82
2021/12/14 07:37:00;;;;;;;88.30;42.07;;;7.30;99.90;;;;;;6195753;23;20019;-82
2021/12/14 07:39:26;;;;;;;89.53;42.45;;;7.30;99.90;;;;;;6171962;23;20243;-82
2021/12/14 07:41:54;;;;;;;88.82;41.65;;;7.30;99.90;;;;;;6222194;23;20022;-82
2021/12/14 07:44:27;;;;;;;84.03;40.72;;;7.30;99.90;;;;;;6223382;23;20012;-82
2021/12/14 07:47:05;;;;;;;88.25;39.95;;;7.40;99.90;;;;;;6221618;23;20341;-82
2021/12/14 07:49:57;;;;;;;87.28;41.78;;;7.40;99.90;;;;;;6198072;23;20020;-82
2021/12/14 07:52:28;;;;;;;88.38;41.83;;;7.40;99.90;;;;;;6180986;23;20020;-81
2021/12/14 07:55:00;;;;;;;93.10;43.15;;;7.40;99.90;;;;;;6219956;23;20016;-82
2021/12/14 07:57:29;;;;;;;86.22;40.65;;;7.40;99.90;;;;;;6222254;23;20012;-82
2021/12/14 08:00:40;;;;;;;85.90;40.42;;;7.40;99.90;;;;;;6224382;23;20019;-82
2021/12/14 08:03:08;;;;;;;82.68;39.72;;;7.40;99.90;;;;;;6167288;23;20015;-82
2021/12/14 08:05:45;;;;;;;89.07;38.90;;;7.40;99.90;;;;;;6200542;23;20016;-81
2021/12/14 08:08:30;;;;;;;78.55;38.47;;;7.40;99.90;;;;;;6200711;23;20015;-81
2021/12/14 08:13:48;;;;;;;82.45;39.42;;;7.50;99.90;;;;;;6224249;23;20062;-81
2021/12/14 08:16:14;;;;;;;87.55;40.78;;;7.50;99.90;;;;;;6225364;23;20015;-81
2021/12/14 08:18:40;;;;;;;88.63;40.08;;;7.50;99.90;;;;;;6199089;23;20066;-81
2021/12/14 08:21:11;;;;;;;89.73;39.10;;;7.50;99.90;;;;;;6173008;23;20008;-81
2021/12/14 08:23:40;;;;;;;81.53;38.78;;;7.50;99.90;;;;;;6223630;23;20012;-81
2021/12/14 08:26:06;;;;;;;88.53;39.55;;;7.50;99.90;;;;;;6198190;23;20016;-81
2021/12/14 08:28:32;;;;;;;85.40;39.60;;;7.50;99.90;;;;;;6196594;23;20066;-81
2021/12/14 08:31:05;;;;;;;84.68;40.28;;;7.50;99.90;;;;;;6170374;23;20027;-82
2021/12/14 08:33:32;;;;;;;96.47;41.97;;;7.50;99.90;;;;;;6197859;23;20023;-82
2021/12/14 08:36:02;;;;;;;94.53;41.80;;;7.50;99.90;;;;;;6224004;23;20012;-82
2021/12/14 08:38:30;;;;;;;96.25;41.47;;;7.60;99.90;;;;;;6199302;23;20020;-82
2021/12/14 08:41:07;;;;;;;99.57;43.13;;;7.60;99.90;;;;;;6225755;23;20210;-82
2021/12/14 08:43:35;;;;;;;91.57;41.30;;;7.60;99.90;;;;;;6225312;23;20060;-82
2021/12/14 08:46:13;;;;;;;97.22;43.22;;;7.60;99.90;;;;;;6224860;23;20016;-82
2021/12/14 08:48:46;;;;;;;93.00;41.75;;;7.60;99.90;;;;;;6199154;23;20024;-82
2021/12/14 08:51:24;;;;;;;100.75;43.53;;;7.60;99.90;;;;;;6226013;23;20020;-81
2021/12/14 08:54:03;;;;;;;98.72;43.85;;;7.70;99.90;;;;;;6224635;23;20717;-81
2021/12/14 08:56:33;;;;;;;93.18;43.22;;;7.60;99.90;;;;;;6223500;23;20014;-81
2021/12/14 08:59:02;;;;;;;94.13;41.38;;;7.60;99.90;;;;;;6198682;23;20024;-81
2021/12/14 09:01:29;;;;;;;101.50;44.17;;;7.60;99.90;;;;;;6223689;23;20490;-81
2021/12/14 09:04:17;;;;;;;104.25;44.05;;;7.60;99.90;;;;;;6171359;23;20031;-81
2021/12/14 09:06:48;;;;;;;98.47;44.20;;;7.60;99.90;;;;;;6194893;23;20027;-82
2021/12/14 09:09:17;;;;;;;104.38;43.92;;;7.60;99.90;;;;;;6196985;23;20016;-82
2021/12/14 09:11:46;;;;;;;106.70;43.95;;;7.50;99.90;;;;;;6222938;23;20016;-81
2021/12/14 09:14:14;;;;;;;101.97;43.97;;;7.50;99.90;;;;;;6223176;23;20104;-82
2021/12/14 09:16:45;;;;;;;103.63;45.10;;;7.50;99.90;;;;;;6197948;23;20012;-82
2021/12/14 09:19:23;;;;;;;113.07;45.90;;;7.50;99.90;;;;;;6221127;23;20012;-82
2021/12/14 09:21:53;;;;;;;100.30;42.25;;;7.50;99.90;;;;;;6222882;23;20022;-81
2021/12/14 09:24:22;;;;;;;102.18;44.42;;;7.60;99.90;;;;;;6223101;23;20012;-81
2021/12/14 09:26:52;;;;;;;111.30;45.17;;;7.60;99.90;;;;;;6221874;23;20427;-81
2021/12/14 09:29:20;;;;;;;98.90;42.97;;;7.60;99.90;;;;;;6198008;23;20055;-82
2021/12/14 09:31:50;;;;;;;112.68;46.25;;;7.60;99.90;;;;;;6198390;23;20016;-81
2021/12/14 09:34:19;;;;;;;108.07;45.72;;;7.60;99.90;;;;;;6224698;23;20030;-81
2021/12/14 09:36:46;;;;;;;104.13;43.83;;;7.60;99.90;;;;;;6222325;23;20033;-82
2021/12/14 09:39:19;;;;;;;108.18;43.38;;;7.60;99.90;;;;;;6226684;23;20016;-82
2021/12/14 09:41:53;;;;;;;111.70;45.15;;;7.70;99.90;;;;;;6230207;23;20023;-82
2021/12/14 09:44:34;;;;;;;117.45;45.58;;;7.70;99.90;;;;;;6228497;23;20090;-84
2021/12/14 09:47:09;;;;;;;109.30;44.78;;;7.70;99.90;;;;;;6227910;23;20031;-83
2021/12/14 09:49:39;;;;;;;108.22;44.30;;;7.70;99.90;;;;;;6229394;23;20512;-83
2021/12/14 09:52:19;;;;;;;114.95;45.55;;;7.70;99.90;;;;;;6179411;23;20063;-84
2021/12/14 09:54:46;;;;;;;116.30;45.22;;;7.80;99.90;;;;;;6203614;23;20028;-84
2021/12/14 09:57:44;;;;;;;109.50;44.00;;;7.70;99.90;;;;;;6177166;23;20465;-84
2021/12/14 10:00:20;;;;;;;114.85;44.35;;;7.80;99.90;;;;;;6205109;23;20091;-83
2021/12/14 10:02:47;;;;;;;114.78;43.10;;;7.80;99.90;;;;;;6218688;23;20052;-83
2021/12/14 10:05:34;;;;;;;115.93;42.92;;;7.80;99.90;;;;;;6190891;23;20103;-83
2021/12/14 10:08:03;;;;;;;119.38;42.47;;;7.80;99.90;;;;;;6219339;23;20050;-83
2021/12/14 10:10:36;;;;;;;115.60;43.50;;;7.80;99.90;;;;;;6175816;23;20027;-83
2021/12/14 10:13:02;;;;;;;112.82;40.70;;;7.80;99.90;;;;;;6230910;23;20023;-83
2021/12/14 10:15:31;;;;;;;114.25;41.55;;;7.90;99.90;;;;;;6230348;23;20023;-83
2021/12/14 10:18:02;;;;;;;110.03;39.92;;;7.90;99.90;;;;;;6229397;23;20016;-83
2021/12/14 10:20:35;;;;;;;102.38;40.80;;;7.90;99.90;;;;;;6231298;23;20016;-83
2021/12/14 10:23:01;;;;;;;107.25;39.85;;;7.90;99.90;;;;;;6230928;23;20341;-83
2021/12/14 10:25:28;;;;;;;95.88;36.42;;;7.90;99.90;;;;;;6180352;23;20012;-83
2021/12/14 10:27:54;;;;;;;101.63;38.42;;;7.90;99.90;;;;;;6205969;23;20020;-83
2021/12/14 10:30:30;;;;;;;95.63;36.80;;;7.90;99.90;;;;;;6205236;23;20464;-83
2021/12/14 10:32:57;;;;;;;102.10;36.60;;;7.90;99.90;;;;;;6228589;23;20016;-83
2021/12/14 10:35:33;;;;;;;97.95;36.75;;;8.00;99.90;;;;;;6230528;23;20012;-83
2021/12/14 10:43:36;;;;;;;91.40;35.03;;;8.00;99.90;;;;;;6231146;23;20035;-82
2021/12/14 10:46:24;;;;;;;111.18;37.13;;;8.00;99.90;;;;;;6230096;23;20020;-82
2021/12/14 10:48:51;;;;;;;107.53;36.88;;;8.10;99.90;;;;;;6229709;23;20472;-82
2021/12/14 10:51:22;;;;;;;94.03;35.50;;;8.10;99.90;;;;;;6227026;23;20023;-81
2021/12/14 10:53:52;;;;;;;90.75;34.88;;;8.10;99.90;;;;;;6221409;23;20437;-82
2021/12/14 10:56:21;;;;;;;85.15;33.47;;;8.20;99.90;;;;;;6232358;23;20020;-82
2021/12/14 10:58:50;;;;;;;96.30;34.10;;;8.20;99.90;;;;;;6230388;23;20031;-82
2021/12/14 11:01:23;;;;;;;83.30;32.78;;;8.20;99.90;;;;;;6231622;23;20016;-82
2021/12/14 11:03:55;;;;;;;97.38;33.10;;;8.20;99.90;;;;;;6230129;23;20035;-83
2021/12/14 11:06:28;;;;;;;84.22;30.90;;;8.20;99.90;;;;;;6231203;23;20109;-83
2021/12/14 11:11:33;;;;;;;84.13;31.52;;;8.20;99.90;;;;;;6205642;23;20020;-82
2021/12/14 11:14:01;;;;;;;98.22;33.13;;;8.20;99.90;;;;;;6229563;23;20288;-82
2021/12/14 11:19:43;;;;;;;78.40;29.98;;;8.30;99.90;;;;;;6229697;23;20012;-82
2021/12/14 11:22:14;;;;;;;83.72;33.75;;;8.30;99.90;;;;;;6227977;23;20362;-82
2021/12/14 11:24:42;;;;;;;80.13;33.55;;;8.20;99.90;;;;;;6224125;23;20019;-82
2021/12/14 11:27:24;;;;;;;98.78;39.55;;;8.30;99.90;;;;;;6203000;23;20696;-82
2021/12/14 11:29:55;;;;;;;113.18;47.30;;;8.20;99.90;;;;;;6229450;23;20494;-82
2021/12/14 11:32:24;;;;;;;94.85;35.47;;;8.30;99.90;;;;;;6227962;23;20035;-82
2021/12/14 11:34:50;;;;;;;95.93;35.22;;;8.30;99.90;;;;;;6200034;23;20047;-83
2021/12/14 11:37:23;;;;;;;91.15;32.40;;;8.30;99.90;;;;;;6222485;23;20016;-82
2021/12/14 11:39:53;;;;;;;82.18;30.95;;;8.30;99.90;;;;;;6226411;23;20393;-82
2021/12/14 11:42:18;;;;;;;84.80;30.63;;;8.30;99.90;;;;;;6224722;23;20197;-81
2021/12/14 11:44:56;;;;;;;86.57;31.97;;;8.30;99.90;;;;;;6198554;23;20016;-81
2021/12/14 11:47:46;;;;;;;87.22;31.92;;;8.40;99.90;;;;;;6226117;23;20012;-82
2021/12/14 11:50:18;;;;;;;92.63;31.38;;;8.30;99.90;;;;;;6201756;23;20090;-82
2021/12/14 11:53:14;;;;;;;72.22;30.88;;;8.40;99.90;;;;;;6227630;23;20019;-82
2021/12/14 11:55:54;;;;;;;76.82;29.15;;;8.40;99.90;;;;;;6192523;23;20061;-82
2021/12/14 11:58:30;;;;;;;85.03;32.90;;;8.40;99.90;;;;;;6224607;23;20465;-82
2021/12/14 12:01:11;;;;;;;78.18;30.48;;;8.40;99.90;;;;;;6226687;23;20094;-82
2021/12/14 12:03:58;;;;;;;77.03;29.27;;;8.50;99.90;;;;;;6229625;23;20011;-82
2021/12/14 12:06:44;;;;;;;88.65;31.08;;;8.60;99.90;;;;;;6230312;23;20043;-82
2021/12/14 12:09:35;;;;;;;73.13;29.45;;;8.60;99.90;;;;;;6204073;23;20016;-82
2021/12/14 12:12:04;;;;;;;91.05;32.30;;;8.70;99.90;;;;;;6228941;23;20511;-82
2021/12/14 12:15:07;;;;;;;97.05;32.83;;;8.70;99.90;;;;;;6227388;23;20082;-83
2021/12/14 12:17:51;;;;;;;90.50;32.15;;;8.70;99.90;;;;;;6201578;23;20020;-83
2021/12/14 12:20:29;;;;;;;75.97;28.70;;;8.70;99.90;;;;;;6222861;23;20093;-83
2021/12/14 12:22:57;;;;;;;81.47;31.10;;;8.70;99.90;;;;;;6222302;23;20020;-82
2021/12/14 12:25:31;;;;;;;95.85;32.83;;;8.80;99.90;;;;;;6202683;23;20016;-82
2021/12/14 12:28:09;;;;;;;100.95;33.72;;;8.80;99.90;;;;;;6227283;23;20036;-82
2021/12/14 12:30:49;;;;;;;95.45;34.67;;;8.80;99.90;;;;;;6230682;23;20051;-83
2021/12/14 12:33:20;;;;;;;98.72;33.33;;;8.90;99.90;;;;;;6204665;23;20023;-84
2021/12/14 12:36:10;;;;;;;92.38;30.98;;;8.90;99.90;;;;;;6204528;23;20020;-84
2021/12/14 12:38:52;;;;;;;70.97;27.30;;;8.90;99.90;;;;;;6204158;23;20008;-83
2021/12/14 12:41:36;;;;;;;105.60;31.50;;;8.90;99.90;;;;;;6227517;23;20388;-83
2021/12/14 12:44:05;;;;;;;107.65;31.45;;;8.90;99.90;;;;;;6103029;23;20017;-83
2021/12/14 12:46:36;;;;;;;72.35;26.95;;;9.00;99.90;;;;;;6201461;23;20024;-83
2021/12/14 12:49:15;;;;;;;87.63;28.90;;;8.90;99.90;;;;;;6203054;23;20020;-83
2021/12/14 12:52:05;;;;;;;67.78;24.80;;;9.00;99.90;;;;;;6203511;23;20251;-83
2021/12/14 12:54:45;;;;;;;56.25;22.90;;;9.00;99.90;;;;;;6227533;23;20077;-83
2021/12/14 12:57:17;;;;;;;82.97;29.87;;;9.00;99.90;;;;;;6228504;23;20016;-83
2021/12/14 12:59:55;;;;;;;60.70;24.67;;;9.00;99.90;;;;;;6201454;23;20310;-83
2021/12/14 13:02:31;;;;;;;60.40;24.30;;;9.00;99.90;;;;;;6228409;22;20023;-83
2021/12/14 13:05:32;;;;;;;67.70;26.60;;;9.00;99.90;;;;;;6227954;23;20049;-83
2021/12/14 13:08:03;;;;;;;58.42;22.98;;;9.00;99.90;;;;;;6169936;23;20239;-83
2021/12/14 13:10:38;;;;;;;66.45;24.92;;;9.00;99.90;;;;;;6203957;23;20016;-83
2021/12/14 13:13:24;;;;;;;52.10;23.15;;;9.00;99.90;;;;;;6203534;23;20064;-82
2021/12/14 13:16:14;;;;;;;65.00;23.33;;;9.00;99.90;;;;;;6228209;23;20016;-82
2021/12/14 13:18:56;;;;;;;57.53;22.50;;;9.00;99.90;;;;;;6227226;23;20011;-83
2021/12/14 13:21:49;;;;;;;58.13;24.52;;;9.00;99.90;;;;;;6228010;23;20016;-83
2021/12/14 13:24:27;;;;;;;90.78;28.65;;;8.90;99.90;;;;;;6227904;23;20012;-83
2021/12/14 13:26:55;;;;;;;65.07;27.05;;;8.90;99.90;;;;;;6226778;23;20012;-83
2021/12/14 13:29:26;;;;;;;83.43;28.80;;;8.90;99.90;;;;;;6202448;23;20384;-83
2021/12/14 13:32:26;;;;;;;69.03;26.47;;;8.90;99.90;;;;;;6226917;23;20099;-83
2021/12/14 13:35:06;;;;;;;49.53;21.95;;;8.80;99.90;;;;;;6227062;23;20286;-83
2021/12/14 13:37:39;;;;;;;57.97;22.80;;;8.80;99.90;;;;;;6225586;23;20016;-82
2021/12/14 13:40:21;;;;;;;48.15;21.35;;;8.80;99.90;;;;;;6226983;23;20008;-82
2021/12/14 13:42:59;;;;;;;45.08;20.33;;;8.80;99.90;;;;;;6226904;23;20008;-82
2021/12/14 13:45:29;;;;;;;45.58;19.73;;;8.70;99.90;;;;;;6201607;23;20491;-82